createdAt,value
2022-11-05T00:00:37.938Z,26.48
2022-11-05T00:03:28.999Z,27.42
2022-11-05T00:06:14.885Z,24.58
2022-11-05T00:09:00.800Z,23.98
2022-11-05T00:11:46.497Z,25.48
2022-11-05T00:19:26.644Z,26.63
2022-11-05T00:22:12.564Z,19.83
2022-11-05T00:24:58.180Z,18.88
2022-11-05T00:27:25.562Z,20.42
2022-11-05T00:29:52.583Z,21.65
2022-11-05T00:32:19.963Z,23.58
2022-11-05T00:34:48.056Z,20.92
2022-11-05T00:37:15.298Z,19.15
2022-11-05T00:39:42.262Z,28.17
2022-11-05T00:42:28.318Z,31.33
2022-11-05T00:45:01.271Z,19.92
2022-11-05T00:47:47.827Z,27.13
2022-11-05T00:50:14.947Z,28.65
2022-11-05T00:52:57.815Z,26.10
2022-11-05T00:55:26.856Z,22.10
2022-11-05T00:57:54.881Z,26.73
2022-11-05T01:00:23.861Z,27.80
2022-11-05T01:02:51.329Z,29.00
2022-11-05T01:05:18.927Z,29.70
2022-11-05T01:07:46.270Z,26.10
2022-11-05T01:10:13.321Z,25.58
2022-11-05T01:12:40.726Z,25.40
2022-11-05T01:15:08.293Z,23.92
2022-11-05T01:17:35.571Z,24.58
2022-11-05T01:20:02.650Z,24.80
2022-11-05T01:22:29.995Z,24.70
2022-11-05T01:24:57.066Z,38.03
2022-11-05T01:27:24.669Z,22.17
2022-11-05T01:29:51.878Z,29.27
2022-11-05T01:32:19.145Z,29.95
2022-11-05T01:34:46.311Z,24.88
2022-11-05T01:37:13.773Z,27.15
2022-11-05T01:39:40.779Z,30.88
2022-11-05T01:42:18.920Z,27.75
2022-11-05T01:45:13.948Z,26.23
2022-11-05T01:47:59.895Z,26.88
2022-11-05T01:50:48.536Z,24.58
2022-11-05T01:53:19.832Z,30.80
2022-11-05T01:56:05.390Z,23.55
2022-11-05T01:58:38.447Z,29.48
2022-11-05T02:01:05.532Z,28.02
2022-11-05T02:03:32.918Z,32.95
2022-11-05T02:06:02.761Z,28.38
2022-11-05T02:08:55.830Z,27.42
2022-11-05T02:11:23.206Z,26.33
2022-11-05T02:13:51.325Z,30.27
2022-11-05T02:16:26.968Z,23.95
2022-11-05T02:19:32.696Z,31.23
2022-11-05T02:22:43.390Z,31.05
2022-11-05T02:25:30.884Z,28.10
2022-11-05T02:28:42.830Z,31.52
2022-11-05T02:31:22.654Z,26.20
2022-11-05T02:33:56.742Z,28.20
2022-11-05T02:36:43.727Z,29.58
2022-11-05T02:39:18.424Z,26.70
2022-11-05T02:44:33.860Z,27.92
2022-11-05T02:47:42.634Z,27.52
2022-11-05T02:50:57.680Z,27.08
2022-11-05T02:53:51.534Z,31.92
2022-11-05T02:56:23.806Z,21.23
2022-11-05T02:58:51.163Z,28.05
2022-11-05T03:01:18.253Z,34.90
2022-11-05T03:03:55.746Z,27.73
2022-11-05T03:06:45.480Z,31.98
2022-11-05T03:09:35.737Z,34.55
2022-11-05T03:12:38.669Z,43.20
2022-11-05T03:15:27.355Z,35.28
2022-11-05T03:18:18.542Z,59.47
2022-11-05T03:20:48.749Z,57.92
2022-11-05T03:23:29.417Z,33.25
2022-11-05T03:26:10.201Z,51.50
2022-11-05T03:28:40.704Z,54.22
2022-11-05T03:31:08.504Z,50.15
2022-11-05T03:33:38.640Z,42.35
2022-11-05T03:36:16.499Z,43.17
2022-11-05T03:38:47.216Z,39.85
2022-11-05T03:41:16.220Z,44.30
2022-11-05T03:43:48.895Z,40.00
2022-11-05T03:46:24.577Z,36.75
2022-11-05T03:48:55.404Z,43.17
2022-11-05T03:51:35.809Z,47.40
2022-11-05T03:54:05.163Z,28.23
2022-11-05T03:56:43.539Z,43.97
2022-11-05T03:59:12.050Z,50.67
2022-11-05T04:01:39.862Z,47.88
2022-11-05T04:04:07.124Z,42.15
2022-11-05T04:06:53.362Z,38.08
2022-11-05T04:09:38.997Z,46.70
2022-11-05T04:12:25.232Z,47.28
2022-11-05T04:14:52.176Z,46.72
2022-11-05T04:17:19.437Z,47.78
2022-11-05T04:20:05.117Z,46.67
2022-11-05T04:22:53.254Z,49.72
2022-11-05T04:25:21.525Z,51.08
2022-11-05T04:27:48.906Z,38.78
2022-11-05T04:30:20.515Z,51.08
2022-11-05T04:33:15.448Z,50.53
2022-11-05T04:35:45.241Z,48.67
2022-11-05T04:38:15.123Z,39.80
2022-11-05T04:40:43.027Z,50.80
2022-11-05T04:43:20.054Z,55.97
2022-11-05T04:45:47.257Z,48.10
2022-11-05T04:48:14.506Z,41.95
2022-11-05T04:50:41.555Z,50.03
2022-11-05T04:53:09.007Z,46.67
2022-11-05T04:55:36.163Z,55.28
2022-11-05T04:58:03.469Z,57.30
2022-11-05T05:00:30.585Z,49.42
2022-11-05T05:02:57.830Z,49.20
2022-11-05T05:05:24.966Z,59.83
2022-11-05T05:07:52.256Z,66.53
2022-11-05T05:10:19.342Z,63.80
2022-11-05T05:12:46.854Z,73.80
2022-11-05T05:15:13.829Z,72.45
2022-11-05T05:17:41.093Z,82.38
2022-11-05T05:20:27.006Z,97.15
2022-11-05T05:22:55.219Z,84.00
2022-11-05T05:25:22.459Z,60.05
2022-11-05T05:27:49.877Z,63.17
2022-11-05T05:30:17.176Z,50.28
2022-11-05T05:32:44.910Z,52.25
2022-11-05T05:35:12.179Z,48.53
2022-11-05T05:37:39.479Z,64.85
2022-11-05T05:40:07.117Z,52.65
2022-11-05T05:42:38.776Z,60.05
2022-11-05T05:45:09.193Z,50.00
2022-11-05T05:47:36.540Z,44.63
2022-11-05T05:50:03.855Z,58.53
2022-11-05T05:52:31.808Z,48.80
2022-11-05T05:54:58.767Z,53.42
2022-11-05T05:57:26.001Z,57.72
2022-11-05T05:59:53.059Z,52.65
2022-11-05T06:02:20.428Z,66.90
2022-11-05T06:04:47.526Z,81.60
2022-11-05T06:07:14.807Z,57.95
2022-11-05T06:09:41.807Z,55.25
2022-11-05T06:12:09.219Z,67.18
2022-11-05T06:14:36.165Z,74.20
2022-11-05T06:17:03.428Z,62.95
2022-11-05T06:19:30.390Z,73.13
2022-11-05T06:21:57.651Z,71.13
2022-11-05T06:24:24.665Z,63.22
2022-11-05T06:26:51.954Z,56.80
2022-11-05T06:29:19.005Z,58.25
2022-11-05T06:31:46.524Z,67.82
2022-11-05T06:34:13.597Z,56.58
2022-11-05T06:36:40.847Z,57.92
2022-11-05T06:39:12.555Z,57.13
2022-11-05T06:42:04.069Z,62.97
2022-11-05T06:44:26.906Z,63.08
2022-11-05T06:46:54.148Z,54.65
2022-11-05T06:49:24.641Z,67.28
2022-11-05T06:51:52.270Z,56.45
2022-11-05T06:54:19.321Z,58.97
2022-11-05T06:56:47.118Z,58.65
2022-11-05T06:59:14.169Z,60.95
2022-11-05T07:01:41.561Z,66.15
2022-11-05T07:04:08.691Z,61.25
2022-11-05T07:06:37.218Z,66.43
2022-11-05T07:09:04.706Z,71.88
2022-11-05T07:11:32.066Z,67.20
2022-11-05T07:13:59.064Z,69.28
2022-11-05T07:16:26.335Z,63.13
2022-11-05T07:18:55.839Z,66.15
2022-11-05T07:21:23.471Z,65.70
2022-11-05T07:23:50.630Z,67.72
2022-11-05T07:26:17.993Z,67.90
2022-11-05T07:28:44.965Z,71.38
2022-11-05T07:31:12.307Z,78.05
2022-11-05T07:33:39.295Z,71.72
2022-11-05T07:36:09.968Z,83.43
2022-11-05T07:38:36.985Z,70.07
2022-11-05T07:41:05.021Z,93.55
2022-11-05T07:43:32.076Z,90.05
2022-11-05T07:45:59.508Z,98.25
2022-11-05T07:48:28.765Z,78.88
2022-11-05T07:50:56.002Z,76.45
2022-11-05T07:53:22.985Z,88.50
2022-11-05T07:55:52.488Z,120.47
2022-11-05T07:58:19.665Z,88.15
2022-11-05T08:00:47.977Z,82.63
2022-11-05T08:03:17.236Z,122.32
2022-11-05T08:05:47.158Z,77.05
2022-11-05T08:08:16.677Z,89.40
2022-11-05T08:10:44.093Z,93.78
2022-11-05T08:13:12.939Z,88.20
2022-11-05T08:15:41.029Z,118.00
2022-11-05T08:18:16.261Z,93.18
2022-11-05T08:20:45.424Z,85.88
2022-11-05T08:23:12.994Z,85.80
2022-11-05T08:25:40.718Z,87.72
2022-11-05T08:28:11.087Z,85.65
2022-11-05T08:30:38.787Z,100.07
2022-11-05T08:33:08.676Z,105.15
2022-11-05T08:35:37.587Z,107.25
2022-11-05T08:38:06.905Z,75.10
2022-11-05T08:40:35.466Z,77.20
2022-11-05T08:43:04.140Z,88.43
2022-11-05T08:45:31.822Z,78.10
2022-11-05T08:48:03.902Z,75.78
2022-11-05T08:50:31.851Z,96.28
2022-11-05T08:52:59.190Z,90.25
2022-11-05T08:55:26.961Z,85.30
2022-11-05T08:58:10.728Z,96.20
2022-11-05T09:00:39.694Z,78.13
2022-11-05T09:03:08.667Z,75.75
2022-11-05T09:05:40.120Z,96.55
2022-11-05T09:08:09.308Z,80.47
2022-11-05T09:10:37.493Z,70.18
2022-11-05T09:13:04.873Z,75.40
2022-11-05T09:15:33.414Z,86.03
2022-11-05T09:18:00.555Z,78.88
2022-11-05T09:20:28.720Z,80.85
2022-11-05T09:22:55.832Z,76.82
2022-11-05T09:25:23.603Z,59.65
2022-11-05T09:27:50.759Z,91.43
2022-11-05T09:30:18.186Z,102.93
2022-11-05T09:32:45.249Z,119.72
2022-11-05T09:35:12.748Z,71.70
2022-11-05T09:37:39.846Z,50.88
2022-11-05T09:40:08.302Z,48.80
2022-11-05T09:42:39.882Z,53.85
2022-11-05T09:45:20.368Z,62.67
2022-11-05T09:47:56.885Z,53.90
2022-11-05T09:50:40.539Z,57.53
2022-11-05T09:53:10.294Z,49.78
2022-11-05T09:55:42.098Z,48.92
2022-11-05T09:58:34.382Z,42.05
2022-11-05T10:01:04.721Z,44.33
2022-11-05T10:03:34.316Z,36.20
2022-11-05T10:06:08.633Z,34.00
2022-11-05T10:08:45.196Z,40.13
2022-11-05T10:11:24.984Z,43.60
2022-11-05T10:14:08.157Z,35.92
2022-11-05T10:16:43.448Z,38.97
2022-11-05T10:22:05.636Z,58.72
2022-11-05T10:24:30.469Z,38.55
2022-11-05T10:26:58.326Z,38.95
2022-11-05T10:29:29.662Z,52.03
2022-11-05T10:31:59.387Z,45.33
2022-11-05T10:34:30.893Z,43.30
2022-11-05T10:36:58.318Z,40.33
2022-11-05T10:39:27.703Z,38.83
2022-11-05T10:42:30.870Z,44.33
2022-11-05T10:45:09.636Z,47.60
2022-11-05T10:47:55.396Z,43.47
2022-11-05T10:50:29.652Z,41.63
2022-11-05T10:53:18.314Z,47.42
2022-11-05T10:55:48.198Z,41.20
2022-11-05T10:58:15.440Z,40.20
2022-11-05T11:01:06.237Z,39.75
2022-11-05T11:03:46.371Z,44.17
2022-11-05T11:06:18.086Z,42.28
2022-11-05T11:08:47.739Z,37.28
2022-11-05T11:11:32.090Z,34.33
2022-11-05T11:14:06.273Z,33.70
2022-11-05T11:16:39.339Z,158.70
2022-11-05T11:19:26.319Z,78.80
2022-11-05T11:22:16.400Z,53.97
2022-11-05T11:24:47.765Z,37.72
2022-11-05T11:27:22.618Z,38.47
2022-11-05T11:29:56.526Z,53.80
2022-11-05T11:32:28.208Z,33.85
2022-11-05T11:34:58.127Z,32.50
2022-11-05T11:37:35.569Z,39.33
2022-11-05T11:40:16.749Z,37.72
2022-11-05T11:43:00.385Z,52.17
2022-11-05T11:45:36.540Z,61.75
2022-11-05T11:48:10.315Z,62.38
2022-11-05T11:50:41.761Z,66.57
2022-11-05T11:53:20.947Z,70.55
2022-11-05T11:56:05.192Z,33.17
2022-11-05T11:58:48.804Z,41.15
2022-11-05T12:01:16.133Z,39.03
2022-11-05T12:03:54.349Z,40.63
2022-11-05T12:06:29.740Z,34.20
2022-11-05T12:09:17.714Z,35.00
2022-11-05T12:12:01.861Z,40.90
2022-11-05T12:14:36.085Z,106.57
2022-11-05T12:17:15.981Z,116.88
2022-11-05T12:20:03.149Z,76.70
2022-11-05T12:22:44.281Z,43.35
2022-11-05T12:25:26.943Z,34.80
2022-11-05T12:28:36.182Z,47.00
2022-11-05T12:31:10.437Z,130.10
2022-11-05T12:33:40.763Z,86.65
2022-11-05T12:36:28.625Z,43.05
2022-11-05T12:39:21.431Z,41.38
2022-11-05T12:42:07.315Z,50.10
2022-11-05T12:44:51.899Z,67.57
2022-11-05T12:47:30.338Z,109.68
2022-11-05T12:50:04.599Z,68.28
2022-11-05T12:52:37.776Z,39.03
2022-11-05T12:55:40.109Z,40.35
2022-11-05T12:58:20.521Z,40.92
2022-11-05T13:00:57.174Z,33.22
2022-11-05T13:03:43.859Z,33.63
2022-11-05T13:06:15.883Z,28.70
2022-11-05T13:09:06.796Z,28.23
2022-11-05T13:11:41.921Z,34.05
2022-11-05T13:14:14.608Z,30.00
2022-11-05T13:16:47.585Z,30.05
2022-11-05T13:19:18.014Z,36.97
2022-11-05T13:21:54.053Z,37.05
2022-11-05T13:24:25.497Z,31.63
2022-11-05T13:27:03.558Z,34.25
2022-11-05T13:29:43.590Z,62.88
2022-11-05T13:32:35.515Z,155.38
2022-11-05T13:35:05.896Z,74.45
2022-11-05T13:38:02.039Z,53.65
2022-11-05T13:43:25.519Z,100.72
2022-11-05T13:46:04.463Z,46.80
2022-11-05T13:48:51.609Z,31.67
2022-11-05T13:51:40.689Z,33.42
2022-11-05T13:54:22.955Z,43.15
2022-11-05T13:57:09.961Z,39.42
2022-11-05T13:59:37.211Z,18.15
2022-11-05T14:02:17.278Z,22.30
2022-11-05T14:04:54.405Z,18.85
2022-11-05T14:07:23.680Z,23.15
2022-11-05T14:10:01.424Z,23.70
2022-11-05T14:12:38.782Z,28.80
2022-11-05T14:15:17.503Z,35.50
2022-11-05T14:17:54.940Z,34.95
2022-11-05T14:20:31.308Z,37.80
2022-11-05T14:23:23.205Z,26.52
2022-11-05T14:26:15.324Z,22.40
2022-11-05T14:28:45.467Z,39.35
2022-11-05T14:31:16.859Z,41.63
2022-11-05T14:34:12.420Z,30.70
2022-11-05T14:36:41.259Z,28.67
2022-11-05T14:39:19.565Z,37.13
2022-11-05T14:42:02.469Z,22.52
2022-11-05T14:44:34.392Z,36.90
2022-11-05T14:47:19.729Z,40.03
2022-11-05T14:49:53.902Z,32.80
2022-11-05T14:52:21.645Z,40.25
2022-11-05T14:54:53.392Z,34.88
2022-11-05T14:57:57.041Z,48.95
2022-11-05T15:00:29.945Z,97.50
2022-11-05T15:03:05.396Z,69.63
2022-11-05T15:05:47.795Z,46.67
2022-11-05T15:08:26.832Z,42.30
2022-11-05T15:10:58.132Z,41.20
2022-11-05T15:13:54.807Z,38.83
2022-11-05T15:16:33.642Z,32.85
2022-11-05T15:19:01.351Z,36.05
2022-11-05T15:21:31.929Z,37.45
2022-11-05T15:24:01.162Z,43.70
2022-11-05T15:26:43.750Z,55.15
2022-11-05T15:29:21.570Z,70.35
2022-11-05T15:31:50.295Z,73.30
2022-11-05T15:34:19.123Z,81.60
2022-11-05T15:37:00.167Z,50.08
2022-11-05T15:39:32.226Z,47.38
2022-11-05T15:42:02.780Z,72.70
2022-11-05T15:44:33.364Z,74.22
2022-11-05T15:47:22.973Z,103.63
2022-11-05T15:49:53.541Z,136.48
2022-11-05T15:52:23.365Z,115.15
2022-11-05T15:55:17.337Z,106.25
2022-11-05T15:57:53.422Z,94.82
2022-11-05T16:00:23.326Z,96.65
2022-11-05T16:02:59.335Z,64.43
2022-11-05T16:05:31.083Z,74.55
2022-11-05T16:07:59.710Z,73.82
2022-11-05T16:10:34.536Z,114.88
2022-11-05T16:13:38.040Z,113.72
2022-11-05T16:16:33.394Z,101.60
2022-11-05T16:19:00.890Z,85.25
2022-11-05T16:21:28.416Z,65.18
2022-11-05T16:23:58.710Z,69.20
2022-11-05T16:29:33.832Z,77.10
2022-11-05T16:32:05.499Z,60.28
2022-11-05T16:34:41.309Z,97.18
2022-11-05T16:37:13.369Z,84.45
2022-11-05T16:39:42.929Z,77.90
2022-11-05T16:42:22.417Z,68.20
2022-11-05T16:44:50.685Z,63.92
2022-11-05T16:47:19.286Z,65.75
2022-11-05T16:49:48.484Z,54.55
2022-11-05T16:52:16.414Z,56.63
2022-11-05T16:54:43.672Z,54.67
2022-11-05T16:57:26.775Z,59.53
2022-11-05T16:59:55.871Z,70.82
2022-11-05T17:02:23.553Z,61.83
2022-11-05T17:04:50.950Z,65.35
2022-11-05T17:07:21.350Z,81.97
2022-11-05T17:09:50.739Z,82.65
2022-11-05T17:12:18.067Z,128.63
2022-11-05T17:14:47.372Z,110.75
2022-11-05T17:17:14.830Z,128.65
2022-11-05T17:19:42.703Z,154.30
2022-11-05T17:22:10.421Z,141.80
2022-11-05T17:24:38.909Z,170.60
2022-11-05T17:27:06.345Z,142.27
2022-11-05T17:29:33.394Z,157.60
2022-11-05T17:32:00.735Z,146.10
2022-11-05T17:34:28.055Z,104.00
2022-11-05T17:36:55.472Z,106.55
2022-11-05T17:39:28.704Z,137.75
2022-11-05T17:41:58.587Z,148.18
2022-11-05T17:44:26.177Z,126.60
2022-11-05T17:46:53.523Z,112.60
2022-11-05T17:49:20.559Z,85.78
2022-11-05T17:51:48.089Z,89.85
2022-11-05T17:54:15.931Z,118.05
2022-11-05T17:56:44.804Z,68.78
2022-11-05T17:59:12.040Z,77.82
2022-11-05T18:01:43.380Z,55.10
2022-11-05T18:04:12.082Z,56.33
2022-11-05T18:06:40.927Z,44.92
2022-11-05T18:09:09.660Z,58.85
2022-11-05T18:11:37.993Z,72.47
2022-11-05T18:14:05.380Z,81.65
2022-11-05T18:16:33.323Z,88.88
2022-11-05T18:19:00.468Z,84.57
2022-11-05T18:21:27.940Z,67.85
2022-11-05T18:23:55.009Z,67.80
2022-11-05T18:26:22.461Z,60.50
2022-11-05T18:28:49.500Z,47.67
2022-11-05T18:31:21.581Z,53.30
2022-11-05T18:33:50.126Z,42.78
2022-11-05T18:36:23.417Z,41.33
2022-11-05T18:38:51.662Z,57.88
2022-11-05T18:41:22.056Z,86.47
2022-11-05T18:43:49.197Z,76.95
2022-11-05T18:46:43.133Z,49.08
2022-11-05T18:49:05.664Z,46.47
2022-11-05T18:51:33.287Z,35.22
2022-11-05T18:54:00.638Z,33.72
2022-11-05T18:56:28.036Z,35.45
2022-11-05T18:59:21.902Z,40.08
2022-11-05T19:01:43.095Z,40.28
2022-11-05T19:04:13.330Z,43.35
2022-11-05T19:06:41.044Z,52.55
2022-11-05T19:09:12.005Z,68.05
2022-11-05T19:11:40.049Z,58.33
2022-11-05T19:14:10.191Z,66.40
2022-11-05T19:16:37.724Z,88.45
2022-11-05T19:19:06.666Z,96.90
2022-11-05T19:21:36.649Z,97.70
2022-11-05T19:24:04.043Z,75.60
2022-11-05T19:26:31.599Z,75.82
2022-11-05T19:29:00.874Z,73.00
2022-11-05T19:31:28.687Z,72.88
2022-11-05T19:33:56.057Z,73.95
2022-11-05T19:36:24.786Z,90.15
2022-11-05T19:39:03.671Z,109.95
2022-11-05T19:41:31.317Z,105.65
2022-11-05T19:43:59.711Z,88.95
2022-11-05T19:46:28.192Z,77.03
2022-11-05T19:48:55.404Z,77.57
2022-11-05T19:51:25.215Z,87.22
2022-11-05T19:53:53.135Z,87.13
2022-11-05T19:56:23.248Z,78.03
2022-11-05T19:58:51.802Z,71.75
2022-11-05T20:01:21.504Z,74.63
2022-11-05T20:03:48.934Z,64.10
2022-11-05T20:06:23.275Z,53.30
2022-11-05T20:09:19.784Z,55.90
2022-11-05T20:11:39.341Z,87.40
2022-11-05T20:14:07.931Z,79.55
2022-11-05T20:16:39.179Z,76.13
2022-11-05T20:19:08.543Z,78.32
2022-11-05T20:21:36.088Z,65.25
2022-11-05T20:24:03.837Z,71.07
2022-11-05T20:26:31.838Z,53.17
2022-11-05T20:28:59.301Z,62.60
2022-11-05T20:31:29.336Z,50.60
2022-11-05T20:33:56.731Z,54.63
2022-11-05T20:36:26.110Z,47.75
2022-11-05T20:38:56.644Z,83.57
2022-11-05T20:41:25.154Z,94.15
2022-11-05T20:43:52.303Z,79.28
2022-11-05T20:46:21.481Z,115.30
2022-11-05T20:48:49.553Z,114.72
2022-11-05T20:51:22.136Z,94.22
2022-11-05T20:53:53.493Z,101.97
2022-11-05T20:56:25.821Z,69.80
2022-11-05T20:58:53.128Z,66.95
2022-11-05T21:01:20.995Z,87.63
2022-11-05T21:03:50.280Z,73.38
2022-11-05T21:06:19.774Z,62.72
2022-11-05T21:08:51.126Z,102.78
2022-11-05T21:11:19.515Z,129.27
2022-11-05T21:13:46.760Z,116.10
2022-11-05T21:16:18.437Z,105.55
2022-11-05T21:18:48.880Z,96.95
2022-11-05T21:21:19.377Z,68.13
2022-11-05T21:23:47.512Z,58.70
2022-11-05T21:26:16.831Z,59.80
2022-11-05T21:28:44.178Z,64.50
2022-11-05T21:31:11.821Z,76.95
2022-11-05T21:33:38.919Z,73.47
2022-11-05T21:36:12.909Z,80.28
2022-11-05T21:38:40.746Z,87.47
2022-11-05T21:41:10.305Z,85.07
2022-11-05T21:43:38.779Z,92.90
2022-11-05T21:46:08.409Z,150.05
2022-11-05T21:48:36.684Z,140.75
2022-11-05T21:51:22.865Z,123.28
2022-11-05T21:54:08.466Z,112.68
2022-11-05T21:56:56.050Z,107.38
2022-11-05T21:59:43.096Z,75.32
2022-11-05T22:02:12.592Z,70.20
2022-11-05T22:04:45.280Z,75.78
2022-11-05T22:07:16.772Z,75.53
2022-11-05T22:09:44.381Z,70.38
2022-11-05T22:12:15.752Z,65.05
2022-11-05T22:14:43.259Z,71.90
2022-11-05T22:17:11.048Z,72.38
2022-11-05T22:19:38.306Z,76.28
2022-11-05T22:22:07.037Z,69.82
2022-11-05T22:24:35.487Z,82.90
2022-11-05T22:27:09.048Z,69.65
2022-11-05T22:29:36.748Z,54.38
2022-11-05T22:32:05.465Z,59.63
2022-11-05T22:34:32.838Z,57.50
2022-11-05T22:37:00.316Z,45.70
2022-11-05T22:39:27.370Z,58.30
2022-11-05T22:41:58.668Z,55.58
2022-11-05T22:44:26.944Z,55.10
2022-11-05T22:46:54.669Z,49.42
2022-11-05T22:49:23.050Z,47.25
2022-11-05T22:51:50.555Z,41.65
2022-11-05T22:54:20.251Z,37.65
2022-11-05T22:56:50.348Z,43.00
2022-11-05T22:59:18.961Z,56.95
2022-11-05T23:01:46.883Z,68.05
2022-11-05T23:04:14.868Z,73.65
2022-11-05T23:07:01.242Z,68.50
2022-11-05T23:09:49.688Z,62.35
2022-11-05T23:12:33.009Z,52.83
2022-11-05T23:15:01.714Z,50.03
2022-11-05T23:17:47.821Z,66.43
2022-11-05T23:20:41.953Z,86.63
2022-11-05T23:23:39.029Z,85.13
2022-11-05T23:26:26.022Z,90.70
2022-11-05T23:28:53.564Z,60.08
2022-11-05T23:31:39.020Z,67.93
2022-11-05T23:34:06.350Z,101.68
2022-11-05T23:36:52.172Z,74.72
2022-11-05T23:39:19.429Z,62.22
2022-11-05T23:42:04.853Z,69.75
2022-11-05T23:44:51.059Z,72.53
2022-11-05T23:47:36.679Z,63.05
2022-11-05T23:50:04.147Z,46.00
2022-11-05T23:52:31.156Z,78.70
2022-11-05T23:54:58.421Z,45.17
2022-11-05T23:57:25.560Z,51.90
2022-11-05T23:59:52.792Z,75.43
